Time;durP1;ratioP1;P1;durP2;ratioP2;P2;SDS_P1;SDS_P2;PMS_P1;PMS_P2;Temp;Humidity;BMP_temperature;BMP_pressure;BME280_temperature;BME280_humidity;BME280_pressure;Samples;Min_cycle;Max_cycle;Signal;HPM_P1;HPM_P2
2024/02/13 00:00:55;;;;;;;0.05;0.05;;;;;;;3.15;98.83;100031.56;6186401;23;20005;-71
2024/02/13 00:03:30;;;;;;;0.10;0.10;;;;;;;3.17;99.37;100029.47;6208280;23;20032;-72
2024/02/13 00:05:58;;;;;;;;;;;;;;;3.21;99.86;100040.66;6162148;23;20012;-72
2024/02/13 00:08:27;;;;;;;0.00;0.00;;;;;;;3.06;99.86;100022.13;6209957;23;19935;-72
2024/02/13 00:10:53;;;;;;;0.00;0.00;;;;;;;2.98;99.92;100017.88;6185823;23;20027;-73
2024/02/13 00:13:40;;;;;;;0.00;0.00;;;;;;;3.09;100.00;100037.88;6210390;23;20061;-73
2024/02/13 00:16:17;;;;;;;0.10;0.10;;;;;;;2.89;100.00;100001.13;6211436;23;20027;-74
2024/02/13 00:18:43;;;;;;;0.00;0.00;;;;;;;3.09;100.00;100027.06;6212791;23;20012;-75
2024/02/13 00:21:09;;;;;;;0.00;0.00;;;;;;;2.97;100.00;100002.69;6187276;23;20083;-74
2024/02/13 00:23:36;;;;;;;0.00;0.00;;;;;;;2.98;100.00;100015.16;6209555;23;20013;-74
2024/02/13 00:26:02;;;;;;;0.10;0.10;;;;;;;2.88;100.00;100004.06;6186673;23;20004;-74
2024/02/13 00:28:28;;;;;;;0.00;0.00;;;;;;;3.01;100.00;100030.06;6209542;23;20000;-74
2024/02/13 00:30:54;;;;;;;0.00;0.00;;;;;;;3.09;100.00;100048.69;6186214;23;20008;-75
2024/02/13 00:33:19;;;;;;;0.10;0.10;;;;;;;3.08;100.00;100047.03;6210217;23;20000;-73
2024/02/13 00:40:07;;;;;;;;;;;;;;;;;;;;;
2024/02/13 00:42:49;;;;;;;0.00;0.00;;;;;;;3.06;100.00;100049.16;6212237;23;20009;-73
2024/02/13 00:45:14;;;;;;;0.00;0.00;;;;;;;2.86;100.00;100016.94;6187374;23;20043;-74
2024/02/13 00:47:42;;;;;;;0.10;0.10;;;;;;;2.92;100.00;100021.44;6214775;23;20004;-74
2024/02/13 00:50:08;;;;;;;0.00;0.00;;;;;;;3.01;100.00;100024.66;6216121;23;20004;-74
2024/02/13 00:52:43;;;;;;;0.10;0.10;;;;;;;3.13;100.00;100039.09;6212137;23;20015;-74
2024/02/13 00:55:11;;;;;;;0.00;0.00;;;;;;;2.96;100.00;100025.34;6189395;23;20005;-75
2024/02/13 00:57:40;;;;;;;0.00;0.00;;;;;;;2.88;100.00;100020.28;6163153;23;20019;-73
2024/02/13 01:00:35;;;;;;;0.00;0.00;;;;;;;2.83;100.00;100012.81;6188158;23;20043;-74
2024/02/13 01:03:10;;;;;;;0.00;0.00;;;;;;;3.06;100.00;100043.75;6181839;23;20052;-73
2024/02/13 01:06:03;;;;;;;;;;;;;;;;;;;;;
2024/02/13 01:09:13;;;;;;;0.00;0.00;;;;;;;3.16;100.00;100035.13;6191819;23;20385;-74
2024/02/13 01:11:38;;;;;;;0.10;0.10;;;;;;;2.87;100.00;99994.31;6186410;23;20024;-73
2024/02/13 01:14:04;;;;;;;0.00;0.00;;;;;;;2.93;100.00;100015.81;6191077;23;20039;-72
2024/02/13 01:16:29;;;;;;;0.00;0.00;;;;;;;2.76;100.00;100001.25;6186929;23;20012;-73
2024/02/13 01:18:56;;;;;;;0.10;0.10;;;;;;;2.84;100.00;100019.88;6191545;23;20335;-74
2024/02/13 01:21:31;;;;;;;0.00;0.00;;;;;;;2.66;100.00;100003.66;6213496;23;20059;-73
2024/02/13 01:23:59;;;;;;;0.00;0.00;;;;;;;2.47;100.00;99984.78;6217035;23;20427;-75
2024/02/13 01:26:29;;;;;;;0.00;0.00;;;;;;;2.47;100.00;99995.56;6214530;23;19997;-73
2024/02/13 01:28:54;;;;;;;0.10;0.10;;;;;;;2.44;100.00;99996.81;6187882;23;20016;-75
2024/02/13 01:31:47;;;;;;;;;;;;;;;;;;;;;
2024/02/13 01:34:28;;;;;;;0.00;0.00;;;;;;;2.18;100.00;99987.09;6175149;23;20084;-75
2024/02/13 01:36:57;;;;;;;0.00;0.00;;;;;;;2.32;100.00;100022.88;6190604;23;20016;-74
2024/02/13 01:39:24;;;;;;;0.10;0.10;;;;;;;2.35;100.00;100010.81;6192195;23;20433;-72
2024/02/13 01:41:53;;;;;;;0.00;0.00;;;;;;;2.51;100.00;100017.53;6188598;23;20016;-74
2024/02/13 01:44:30;;;;;;;0.00;0.00;;;;;;;2.59;100.00;100007.25;6162929;23;20005;-74
2024/02/13 01:47:17;;;;;;;0.00;0.00;;;;;;;2.74;100.00;100022.28;6164595;23;20090;-73
2024/02/13 01:49:49;;;;;;;0.00;0.00;;;;;;;2.57;100.00;100003.97;6189218;23;20080;-74
2024/02/13 01:52:17;;;;;;;0.00;0.00;;;;;;;2.56;100.00;100013.09;6190079;23;20012;-73
2024/02/13 01:54:44;;;;;;;0.00;0.00;;;;;;;2.47;100.00;100003.66;6216025;23;20004;-73
2024/02/13 01:57:53;;;;;;;;;;;;;;;;;;;;;
2024/02/13 02:00:58;;;;;;;0.10;0.10;;;;;;;2.65;100.00;99991.22;6216660;23;20471;-76
2024/02/13 02:03:31;;;;;;;0.00;0.00;;;;;;;2.97;100.00;100011.63;6064882;23;20447;-73
2024/02/13 02:06:27;;;;;;;0.00;0.00;;;;;;;3.17;100.00;100015.97;6064973;23;20086;-74
2024/02/13 02:09:03;;;;;;;0.00;0.00;;;;;;;3.39;100.00;99988.44;6023943;23;20026;-73
2024/02/13 02:11:30;;;;;;;0.00;0.00;;;;;;;3.93;100.00;100032.59;6063010;23;20438;-74
2024/02/13 02:13:56;;;;;;;0.00;0.00;;;;;;;4.12;100.00;100025.22;6052300;23;20009;-73
2024/02/13 02:16:22;;;;;;;0.00;0.00;;;;;;;4.23;100.00;100003.81;6209492;23;20036;-73
2024/02/13 02:18:47;;;;;;;0.00;0.00;;;;;;;4.39;100.00;100008.50;6190354;23;20063;-74
2024/02/13 02:21:29;;;;;;;0.10;0.10;;;;;;;4.45;100.00;99990.50;6214874;23;20004;-74
2024/02/13 02:24:04;;;;;;;;;;;;;;;;;;;;;
2024/02/13 02:26:41;;;;;;;;;;;;;;;;;;;;;
2024/02/13 02:29:11;;;;;;;0.00;0.00;;;;;;;4.92;98.53;100022.97;6212881;23;20483;-73
2024/02/13 02:32:16;;;;;;;0.00;0.00;;;;;;;4.74;98.24;99993.31;6164316;23;20019;-72
2024/02/13 02:35:00;;;;;;;;;;;;;;;4.93;98.09;100021.09;6190568;23;20005;-74
2024/02/13 02:37:39;;;;;;;0.10;0.10;;;;;;;4.65;98.86;99980.13;6210142;23;19931;-74
2024/02/13 02:40:10;;;;;;;0.00;0.00;;;;;;;4.65;98.18;99980.13;6189589;23;20005;-73
2024/02/13 02:42:36;;;;;;;0.00;0.00;;;;;;;4.57;98.36;99972.38;6186603;23;20008;-74
2024/02/13 02:45:01;;;;;;;0.00;0.00;;;;;;;4.90;98.31;100025.09;6214854;23;20383;-74
2024/02/13 02:47:27;;;;;;;0.00;0.00;;;;;;;4.85;98.66;100016.84;6212300;23;20000;-73
2024/02/13 02:49:55;;;;;;;0.00;0.00;;;;;;;4.87;98.70;100020.13;6184269;23;20378;-74
2024/02/13 02:52:30;;;;;;;0.00;0.00;;;;;;;4.63;98.66;99987.69;6161792;23;20067;-73
2024/02/13 02:54:56;;;;;;;0.00;0.00;;;;;;;4.61;98.10;99997.91;6164624;23;20072;-74
2024/02/13 02:57:27;;;;;;;0.00;0.00;;;;;;;4.55;99.11;100006.97;6189443;23;20004;-73
2024/02/13 02:59:55;;;;;;;0.10;0.10;;;;;;;4.63;99.08;100025.59;6183140;23;20925;-72
2024/02/13 03:02:25;;;;;;;0.00;0.00;;;;;;;4.61;99.31;100016.06;6164976;23;20012;-73
2024/02/13 03:04:51;;;;;;;0.00;0.00;;;;;;;4.48;99.55;100011.69;6161508;23;20426;-76
2024/02/13 03:07:16;;;;;;;0.00;0.00;;;;;;;4.53;99.92;100001.81;6189423;23;20001;-74
2024/02/13 03:09:44;;;;;;;0.00;0.00;;;;;;;4.67;100.00;100021.34;6186978;22;20020;-72
2024/02/13 03:12:10;;;;;;;0.00;0.00;;;;;;;4.74;100.00;100009.56;6180986;23;20012;-73
2024/02/13 03:14:45;;;;;;;0.00;0.00;;;;;;;4.90;99.66;100019.66;6187964;23;20009;-74
2024/02/13 03:17:27;;;;;;;0.00;0.00;;;;;;;4.87;100.00;99988.44;6166582;23;20072;-78
2024/02/13 03:20:00;;;;;;;0.10;0.10;;;;;;;5.05;100.00;100009.16;6215261;23;20004;-78
2024/02/13 03:23:39;;;;;;;0.00;0.00;;;;;;;5.02;99.56;99989.81;6165413;23;20036;-78
2024/02/13 03:26:30;;;;;;;0.00;0.00;;;;;;;4.90;98.97;99963.56;6196425;23;20031;-77
2024/02/13 03:28:56;;;;;;;0.00;0.00;;;;;;;5.14;99.27;99985.22;6217520;23;20012;-77
2024/02/13 03:31:21;;;;;;;0.00;0.00;;;;;;;5.20;98.86;100002.41;6193928;23;20000;-78
2024/02/13 03:33:47;;;;;;;0.08;0.08;;;;;;;5.23;98.21;99985.66;6217671;23;20411;-78
2024/02/13 03:36:22;;;;;;;0.00;0.00;;;;;;;5.27;99.06;99991.41;6194698;23;20031;-77
2024/02/13 03:38:53;;;;;;;0.00;0.00;;;;;;;5.34;98.53;99998.31;6219988;23;20819;-78
2024/02/13 03:41:19;;;;;;;0.00;0.00;;;;;;;5.33;99.00;99995.84;6171401;23;20004;-77
2024/02/13 03:43:46;;;;;;;0.00;0.00;;;;;;;5.38;98.81;100010.34;6167581;23;20027;-78
2024/02/13 03:46:22;;;;;;;;;;;;;;;;;;;;;
2024/02/13 03:49:16;;;;;;;0.00;0.00;;;;;;;5.33;98.96;100012.13;6220429;23;20035;-79
2024/02/13 03:51:46;;;;;;;0.03;0.03;;;;;;;5.30;99.49;100024.28;6098535;23;20074;-78
2024/02/13 03:54:11;;;;;;;0.00;0.00;;;;;;;5.23;99.35;100020.91;6189820;23;20013;-78
2024/02/13 03:56:40;;;;;;;0.10;0.10;;;;;;;5.10;99.93;100019.28;6191833;23;20062;-78
2024/02/13 03:59:08;;;;;;;0.00;0.00;;;;;;;5.09;99.93;100028.47;6189422;23;20071;-78
2024/02/13 04:01:54;;;;;;;0.00;0.00;;;;;;;4.79;100.00;99982.56;6190065;23;20019;-79
2024/02/13 04:04:20;;;;;;;0.00;0.00;;;;;;;5.06;100.00;100002.66;6213952;23;20028;-78
2024/02/13 04:06:48;;;;;;;0.00;0.00;;;;;;;5.11;100.00;99992.97;6165346;23;20001;-78
2024/02/13 04:09:39;;;;;;;0.00;0.00;;;;;;;5.02;100.00;99969.00;6167933;23;20016;-78
2024/02/13 04:12:09;;;;;;;0.00;0.00;;;;;;;5.18;100.00;99988.25;6167834;23;20516;-77
2024/02/13 04:14:38;;;;;;;0.00;0.00;;;;;;;5.28;100.00;100004.72;6191406;23;20117;-77
2024/02/13 04:17:06;;;;;;;0.00;0.00;;;;;;;5.48;99.79;100025.16;6216125;23;20004;-78
2024/02/13 04:19:32;;;;;;;0.00;0.00;;;;;;;5.36;100.00;100007.06;6166134;23;20028;-77
2024/02/13 04:21:57;;;;;;;0.00;0.00;;;;;;;5.42;100.00;100006.06;6164583;23;19992;-78
2024/02/13 04:24:26;;;;;;;0.00;0.00;;;;;;;5.32;99.56;99986.91;6167378;23;20012;-77
2024/02/13 04:26:51;;;;;;;0.00;0.00;;;;;;;5.47;100.00;100009.97;6217741;23;19996;-78
2024/02/13 04:29:17;;;;;;;0.00;0.00;;;;;;;5.50;100.00;100006.75;6214018;23;20039;-77
2024/02/13 04:31:42;;;;;;;0.00;0.00;;;;;;;5.31;100.00;99993.38;6167380;23;20387;-77
2024/02/13 04:34:08;;;;;;;0.00;0.00;;;;;;;5.38;100.00;100010.34;6190346;23;20079;-76
2024/02/13 04:36:37;;;;;;;0.00;0.00;;;;;;;5.28;100.00;99999.28;6218908;23;20053;-77
2024/02/13 04:39:08;;;;;;;0.00;0.00;;;;;;;5.20;100.00;99986.13;6187719;23;20140;-76
2024/02/13 04:41:33;;;;;;;0.00;0.00;;;;;;;5.28;100.00;99979.50;6193524;23;20005;-77
2024/02/13 04:47:18;;;;;;;0.00;0.00;;;;;;;5.29;100.00;99971.13;6211981;23;20095;-78
2024/02/13 04:49:46;;;;;;;0.00;0.00;;;;;;;5.51;100.00;99998.38;6191195;23;20011;-76
2024/02/13 04:52:22;;;;;;;0.00;0.00;;;;;;;5.46;100.00;99990.16;6168578;23;20070;-77
2024/02/13 04:55:05;;;;;;;0.00;0.00;;;;;;;5.55;100.00;99999.53;6177029;23;20024;-75
2024/02/13 04:57:33;;;;;;;0.10;0.10;;;;;;;5.52;100.00;99999.19;6201293;23;20008;-73
2024/02/13 05:00:01;;;;;;;0.00;0.00;;;;;;;5.49;100.00;99996.97;6194002;23;20334;-72
2024/02/13 05:02:32;;;;;;;0.00;0.00;;;;;;;5.49;100.00;99995.09;6171430;23;20008;-72
2024/02/13 05:07:44;;;;;;;0.00;0.00;;;;;;;5.37;100.00;99999.72;6189946;23;20103;-74
2024/02/13 05:10:11;;;;;;;0.00;0.00;;;;;;;5.26;100.00;100006.84;6190409;23;20178;-73
2024/02/13 05:12:38;;;;;;;0.00;0.00;;;;;;;5.14;100.00;100008.75;6189999;23;20052;-72
2024/02/13 05:15:05;;;;;;;0.00;0.00;;;;;;;5.01;100.00;99997.16;6188431;23;20013;-72
2024/02/13 05:17:46;;;;;;;0.05;0.05;;;;;;;4.96;100.00;100002.44;6213026;23;20011;-73
2024/02/13 05:20:14;;;;;;;0.00;0.00;;;;;;;4.91;100.00;99994.22;6188201;23;20036;-72
2024/02/13 05:22:50;;;;;;;;;;;;;;;;;;;;;
2024/02/13 05:25:26;;;;;;;0.00;0.00;;;;;;;4.92;100.00;100001.28;6213853;23;20368;-72
2024/02/13 05:27:52;;;;;;;0.00;0.00;;;;;;;4.99;100.00;100003.84;6166523;23;20005;-72
2024/02/13 05:30:20;;;;;;;0.00;0.00;;;;;;;5.03;100.00;100005.84;6211940;23;20008;-73
2024/02/13 05:32:49;;;;;;;0.00;0.00;;;;;;;4.85;100.00;99976.22;6188257;23;20012;-72
2024/02/13 05:35:24;;;;;;;0.00;0.00;;;;;;;5.01;100.00;99997.16;6187278;23;20681;-72
2024/02/13 05:37:51;;;;;;;0.00;0.00;;;;;;;5.01;100.00;99983.59;6168112;23;20009;-72
2024/02/13 05:40:17;;;;;;;0.00;0.00;;;;;;;5.16;100.00;99996.63;6189907;23;20035;-74
2024/02/13 05:42:44;;;;;;;0.10;0.10;;;;;;;5.22;100.00;99992.13;6161696;23;20013;-73
2024/02/13 05:45:10;;;;;;;0.00;0.00;;;;;;;5.32;100.00;99989.63;6166040;23;20015;-72
2024/02/13 05:47:37;;;;;;;0.00;0.00;;;;;;;5.38;100.00;99987.81;6211799;23;19997;-72
2024/02/13 05:50:07;;;;;;;0.00;0.00;;;;;;;5.40;100.00;99991.94;6214186;23;20021;-73
2024/02/13 05:52:34;;;;;;;0.00;0.00;;;;;;;5.50;100.00;100006.75;6186867;23;20443;-73
2024/02/13 05:54:59;;;;;;;0.00;0.00;;;;;;;5.51;100.00;100000.28;6214246;23;20009;-72
2024/02/13 05:57:25;;;;;;;0.10;0.10;;;;;;;5.56;100.00;100003.06;6187680;23;20020;-72
2024/02/13 05:59:51;;;;;;;0.00;0.00;;;;;;;5.54;100.00;99983.50;6159572;23;20375;-73
2024/02/13 06:02:17;;;;;;;0.00;0.00;;;;;;;5.52;100.00;99985.63;6190224;23;20442;-73
2024/02/13 06:04:43;;;;;;;0.00;0.00;;;;;;;5.57;100.00;99985.72;6160054;23;20772;-73
2024/02/13 06:07:09;;;;;;;0.00;0.00;;;;;;;5.51;100.00;99979.38;6213927;23;20020;-73
2024/02/13 06:09:35;;;;;;;0.00;0.00;;;;;;;5.55;100.00;99991.41;6161285;23;20012;-74
2024/02/13 06:12:00;;;;;;;0.00;0.00;;;;;;;5.60;100.00;100001.53;6163334;23;20017;-72
2024/02/13 06:14:26;;;;;;;0.00;0.00;;;;;;;5.57;100.00;99996.59;6211810;23;20017;-73
2024/02/13 06:16:51;;;;;;;0.00;0.00;;;;;;;5.51;100.00;99982.09;6162665;23;20008;-73
2024/02/13 06:19:19;;;;;;;0.00;0.00;;;;;;;5.56;100.00;99984.06;6163798;23;20074;-74
2024/02/13 06:21:44;;;;;;;0.00;0.00;;;;;;;5.49;100.00;99973.41;6162694;23;20328;-73
2024/02/13 06:24:12;;;;;;;0.00;0.00;;;;;;;5.52;100.00;99980.19;6163247;23;20001;-72
2024/02/13 06:26:38;;;;;;;0.00;0.00;;;;;;;5.36;100.00;99957.41;6163386;23;20013;-72
2024/02/13 06:29:06;;;;;;;0.00;0.00;;;;;;;5.38;100.00;99966.94;6161187;23;20012;-73
2024/02/13 06:31:35;;;;;;;0.00;0.00;;;;;;;5.47;100.00;99980.13;6162782;23;20378;-73
2024/02/13 06:34:00;;;;;;;0.00;0.00;;;;;;;5.28;100.00;99947.78;6186299;23;20012;-73
2024/02/13 06:36:31;;;;;;;0.00;0.00;;;;;;;5.45;100.00;99982.25;6186896;23;20144;-72
2024/02/13 06:38:56;;;;;;;0.00;0.00;;;;;;;5.51;100.00;99986.72;6184725;23;20118;-72
2024/02/13 06:41:22;;;;;;;0.00;0.00;;;;;;;5.36;100.00;99969.09;6210473;23;20017;-73
2024/02/13 06:43:47;;;;;;;0.00;0.00;;;;;;;5.36;100.00;99969.09;6160395;23;20013;-72
2024/02/13 06:46:14;;;;;;;0.00;0.00;;;;;;;5.45;100.00;99972.22;6185057;23;20008;-72
2024/02/13 06:48:42;;;;;;;0.00;0.00;;;;;;;5.41;100.00;99969.16;6187332;23;20039;-72
2024/02/13 06:51:14;;;;;;;0.00;0.00;;;;;;;5.42;100.00;99978.97;6159853;23;20035;-71
2024/02/13 06:53:43;;;;;;;0.00;0.00;;;;;;;5.39;100.00;99979.44;6162277;23;20035;-72
2024/02/13 06:56:09;;;;;;;0.00;0.00;;;;;;;5.34;100.00;99963.06;6211118;23;20075;-72
2024/02/13 06:58:37;;;;;;;0.00;0.00;;;;;;;5.32;100.00;99946.22;6162400;23;20005;-72
2024/02/13 07:01:02;;;;;;;0.00;0.00;;;;;;;5.45;100.00;99972.22;6182990;23;20009;-71
2024/02/13 07:03:31;;;;;;;0.00;0.00;;;;;;;5.44;100.00;99956.22;6215341;23;20012;-72
2024/02/13 07:05:59;;;;;;;0.00;0.00;;;;;;;5.49;100.00;99956.28;6163020;23;20020;-73
2024/02/13 07:08:25;;;;;;;0.10;0.10;;;;;;;5.60;100.00;99983.34;6187341;23;19997;-72
2024/02/13 07:10:51;;;;;;;0.00;0.00;;;;;;;5.67;100.00;99968.81;6187340;23;20569;-72
2024/02/13 07:13:19;;;;;;;0.00;0.00;;;;;;;5.75;100.00;99973.84;6159260;23;20751;-72
2024/02/13 07:16:14;;;;;;;0.00;0.00;;;;;;;5.60;100.00;99947.25;6189806;23;20016;-74
2024/02/13 07:18:42;;;;;;;0.10;0.10;;;;;;;5.88;100.00;99991.69;6184555;23;20009;-72
2024/02/13 07:21:23;;;;;;;;;;;;;;;;;;;;;
2024/02/13 07:23:54;;;;;;;0.00;0.00;;;;;;;5.82;100.00;99957.41;6212855;23;20108;-73
2024/02/13 07:26:22;;;;;;;0.00;0.00;;;;;;;5.95;100.00;99982.31;6211307;23;20009;-72
2024/02/13 07:28:50;;;;;;;0.00;0.00;;;;;;;5.94;100.00;99969.84;6160537;23;20003;-72
2024/02/13 07:31:19;;;;;;;0.00;0.00;;;;;;;5.97;100.00;99979.38;6185395;23;20016;-72
2024/02/13 07:34:05;;;;;;;0.03;0.03;;;;;;;5.97;100.00;99984.81;6186866;23;20055;-72
2024/02/13 07:36:42;;;;;;;0.00;0.00;;;;;;;5.84;100.00;99966.94;6161603;23;20095;-72
2024/02/13 07:39:37;;;;;;;0.00;0.00;;;;;;;5.87;100.00;99958.31;6207842;23;20040;-72
2024/02/13 07:42:24;;;;;;;;;;;;;;;;;;;;;
2024/02/13 07:45:05;;;;;;;;;;;;;;;;;;;;;
2024/02/13 07:47:54;;;;;;;;;;;;;;;;;;;;;
2024/02/13 07:50:53;;;;;;;;;;;;;;;;;;;;;
2024/02/13 07:53:22;;;;;;;0.00;0.00;;;;;;;5.96;100.00;99950.59;6213537;23;20073;-73
2024/02/13 07:55:55;;;;;;;0.00;0.00;;;;;;;5.98;100.00;99951.19;6209962;23;20407;-72
2024/02/13 07:58:22;;;;;;;0.05;0.05;;;;;;;6.13;100.00;99966.06;6188785;23;20309;-73
2024/02/13 08:01:13;;;;;;;0.00;0.00;;;;;;;6.15;100.00;99963.91;6209817;23;20055;-73
2024/02/13 08:04:18;;;;;;;0.05;0.05;;;;;;;6.29;100.00;99976.09;6189396;23;20023;-71
2024/02/13 08:07:07;;;;;;;0.00;0.00;;;;;;;6.16;100.00;99949.28;6178601;23;20084;-72
2024/02/13 08:09:44;;;;;;;0.00;0.00;;;;;;;6.31;100.00;99962.25;6185215;23;20736;-72
2024/02/13 08:12:14;;;;;;;0.00;0.00;;;;;;;6.39;100.00;99959.94;6213656;23;20008;-72
2024/02/13 08:15:20;;;;;;;0.00;0.00;;;;;;;6.36;100.00;99938.72;6183881;23;20399;-72
2024/02/13 08:18:07;;;;;;;;;;;;;;;;;;;;;
2024/02/13 08:20:41;;;;;;;0.00;0.00;;;;;;;6.63;100.00;99965.19;6194540;23;20083;-73
2024/02/13 08:23:09;;;;;;;0.00;0.00;;;;;;;6.68;100.00;99967.94;6213692;23;20374;-72
2024/02/13 08:40:59;;;;;;;0.00;0.00;;;;;;;7.07;100.00;99991.56;5840367;24;20051;-73
2024/02/13 08:50:17;;;;;;;0.00;0.00;;;;;;;7.18;100.00;99998.75;6036922;23;20352;-73
2024/02/13 08:52:43;;;;;;;0.00;0.00;;;;;;;7.10;100.00;99980.97;6151707;23;20583;-72
2024/02/13 08:55:17;;;;;;;0.00;0.00;;;;;;;7.10;100.00;99986.41;6151404;23;20090;-74
2024/02/13 08:58:19;;;;;;;;;;;;;;;;;;;;;
2024/02/13 09:01:45;;;;;;;0.00;0.00;;;;;;;7.29;100.00;99991.53;6214136;23;20080;-72
2024/02/13 09:05:12;;;;;;;0.00;0.00;;;;;;;6.96;100.00;99941.66;6150162;23;20052;-73
2024/02/13 09:07:47;;;;;;;0.00;0.00;;;;;;;7.29;100.00;99983.38;6124947;23;20005;-73
2024/02/13 09:10:15;;;;;;;0.00;0.00;;;;;;;7.27;100.00;99969.19;6128259;23;20100;-74
2024/02/13 09:13:15;;;;;;;0.00;0.00;;;;;;;7.23;100.00;99970.78;6127641;23;20009;-72
2024/02/13 09:16:02;;;;;;;;;;;;;;;;;;;;;
2024/02/13 09:18:31;;;;;;;0.00;0.00;;;;;;;7.09;100.00;99943.19;6109078;23;20125;-73
2024/02/13 09:21:06;;;;;;;0.00;0.00;;;;;;;7.18;100.00;99955.22;6129963;23;20048;-73
2024/02/13 09:23:54;;;;;;;0.00;0.00;;;;;;;7.26;100.00;99945.81;6121243;23;20857;-73
2024/02/13 09:26:55;;;;;;;0.00;0.00;;;;;;;7.00;100.00;99899.31;6097961;23;20013;-72
2024/02/13 09:29:22;;;;;;;0.00;0.00;;;;;;;7.11;100.00;99905.66;6123755;23;20049;-74
2024/02/13 09:31:47;;;;;;;0.00;0.00;;;;;;;7.32;100.00;99939.34;6118131;23;20029;-73
2024/02/13 09:34:53;;;;;;;;;;;;;;;;;;;;;
2024/02/13 09:37:39;;;;;;;;;;;;;;;;;;;;;
2024/02/13 09:40:20;;;;;;;0.00;0.00;;;;;;;7.42;100.00;99960.41;6160144;23;20084;-74
2024/02/13 09:43:05;;;;;;;0.00;0.00;;;;;;;7.32;100.00;99928.47;6156257;23;20004;-71
2024/02/13 09:45:30;;;;;;;;;;;;;;;7.50;100.00;99952.59;6180396;23;20043;-77
2024/02/13 09:52:07;;;;;;;;;;;;;;;;;;;;;
2024/02/13 09:57:45;;;;;;;0.00;0.00;;;;;;;7.36;100.00;99926.03;6171145;23;20071;-72
2024/02/13 10:00:23;;;;;;;0.00;0.00;;;;;;;7.11;100.00;99886.63;6214011;23;20054;-72
2024/02/13 10:02:48;;;;;;;0.00;0.00;;;;;;;7.19;100.00;99901.69;6159986;23;20378;-71
2024/02/13 10:09:15;;;;;;;;;;;;;;;;;;;;;
2024/02/13 10:15:39;;;;;;;0.00;0.00;;;;;;;7.65;100.00;99921.97;6065540;23;20314;-73
2024/02/13 10:18:30;;;;;;;0.00;0.00;;;;;;;7.59;100.00;99900.41;6186977;23;20000;-72
2024/02/13 10:21:35;;;;;;;0.10;0.10;;;;;;;7.85;100.00;99915.88;6211416;23;20427;-72
2024/02/13 10:24:33;;;;;;;;;;;;;;;7.99;100.00;99912.72;6184870;23;20012;-72
2024/02/13 10:36:30;;;;;;;0.00;0.00;;;;;;;8.35;100.00;99893.84;6159708;23;20446;-71
2024/02/13 10:42:57;;;;;;;0.00;0.00;;;;;;;8.30;100.00;99863.88;6148659;23;20080;-72
2024/02/13 10:45:47;;;;;;;0.00;0.00;;;;;;;8.37;100.00;99884.34;6176041;23;20016;-71
2024/02/13 10:48:37;;;;;;;0.00;0.00;;;;;;;8.45;100.00;99890.41;6156396;23;20015;-72
2024/02/13 10:51:18;;;;;;;0.00;0.00;;;;;;;8.24;100.00;99867.66;6210547;23;20339;-72
2024/02/13 10:54:55;;;;;;;0.00;0.00;;;;;;;8.33;100.00;99879.69;6184357;23;20007;-72
2024/02/13 10:57:17;;;;;;;0.00;0.00;;;;;;;8.16;100.00;99856.19;6175757;23;20086;-72
2024/02/13 10:59:46;;;;;;;0.00;0.00;;;;;;;8.34;100.00;99873.16;6188530;23;20330;-71
2024/02/13 11:02:33;;;;;;;;;;;;;;;;;;;;;
2024/02/13 11:09:22;;;;;;;0.00;0.00;;;;;;;9.13;100.00;99870.47;6100146;23;20017;-72
2024/02/13 11:12:44;;;;;;;;;;;;;;;;;;;;;
2024/02/13 11:15:25;;;;;;;;;;;;;;;;;;;;;
2024/02/13 11:21:42;;;;;;;0.00;0.00;;;;;;;8.85;100.00;99834.44;6146761;23;20112;-73
2024/02/13 11:24:21;;;;;;;0.00;0.00;;;;;;;8.74;100.00;99839.00;6150692;23;20012;-70
2024/02/13 11:27:03;;;;;;;0.00;0.00;;;;;;;8.60;100.00;99826.97;6177141;23;20005;-70
2024/02/13 11:29:49;;;;;;;0.00;0.00;;;;;;;8.44;100.00;99824.22;6187565;23;20009;-72
2024/02/13 11:32:25;;;;;;;0.00;0.00;;;;;;;8.52;100.00;99840.03;6182024;23;20011;-71
2024/02/13 11:34:55;;;;;;;0.00;0.00;;;;;;;8.59;100.00;99853.41;6206769;23;20007;-71
2024/02/13 11:37:28;;;;;;;0.00;0.00;;;;;;;8.59;100.00;99830.81;6184135;23;20015;-72
2024/02/13 11:40:18;;;;;;;0.00;0.00;;;;;;;8.57;100.00;99828.31;6156384;23;20428;-72
2024/02/13 11:43:00;;;;;;;0.00;0.00;;;;;;;8.62;100.00;99841.16;6195644;23;20086;-75
2024/02/13 11:45:26;;;;;;;0.00;0.00;;;;;;;8.52;100.00;99804.59;6194440;23;20016;-75
2024/02/13 11:47:54;;;;;;;0.00;0.00;;;;;;;8.55;100.00;99804.06;6216417;23;20068;-75
2024/02/13 11:50:21;;;;;;;0.00;0.00;;;;;;;8.65;100.00;99824.28;6192178;23;20004;-77
2024/02/13 11:52:56;;;;;;;0.00;0.00;;;;;;;8.59;100.00;99798.09;6219110;23;20049;-76
2024/02/13 11:55:32;;;;;;;0.00;0.00;;;;;;;8.46;100.00;99789.31;6218033;23;20004;-78
2024/02/13 11:58:12;;;;;;;0.00;0.00;;;;;;;8.33;100.00;99757.09;6221295;23;20008;-76
2024/02/13 12:00:38;;;;;;;0.00;0.00;;;;;;;8.30;100.00;99757.63;6168307;23;20066;-76
2024/02/13 12:03:06;;;;;;;0.00;0.00;;;;;;;8.58;100.00;99780.91;6190456;23;20001;-77
2024/02/13 12:05:42;;;;;;;0.00;0.00;;;;;;;8.59;100.00;99788.00;6190561;23;20020;-72
2024/02/13 12:08:13;;;;;;;0.00;0.00;;;;;;;8.64;100.00;99779.81;6212794;23;20005;-72
2024/02/13 12:10:51;;;;;;;;;;;;;;;;;;;;;
2024/02/13 12:13:22;;;;;;;0.00;0.00;;;;;;;8.95;100.00;99769.00;6188117;23;20087;-72
2024/02/13 12:16:28;;;;;;;0.00;0.00;;;;;;;8.94;100.00;99766.53;6209886;23;20009;-71
2024/02/13 12:25:56;;;;;;;0.00;0.00;;;;;;;8.85;100.00;99734.34;6121055;23;20519;-72
2024/02/13 12:28:37;;;;;;;0.00;0.00;;;;;;;9.11;100.00;99761.63;6114489;23;20016;-72
2024/02/13 12:32:06;;;;;;;;;;;;;;;;;;;;;
2024/02/13 12:34:37;;;;;;;0.00;0.00;;;;;;;8.86;100.00;99708.72;6114736;23;20148;-73
2024/02/13 12:37:08;;;;;;;0.00;0.00;;;;;;;9.45;100.00;99733.78;6119796;23;20086;-72
2024/02/13 12:39:41;;;;;;;0.00;0.00;;;;;;;9.39;100.00;99705.69;6096316;23;20006;-73
2024/02/13 12:42:23;;;;;;;;;;;;;;;;;;;;;
2024/02/13 12:44:59;;;;;;;;;;;;;;;;;;;;;
2024/02/13 12:47:32;;;;;;;0.00;0.00;;;;;;;9.27;100.00;99694.22;6120189;23;20094;-73
2024/02/13 12:50:53;;;;;;;;;;;;;;;;;;;;;
2024/02/13 12:53:25;;;;;;;0.00;0.00;;;;;;;9.32;100.00;99679.78;6207416;23;20100;-74
2024/02/13 12:56:01;;;;;;;0.00;0.00;;;;;;;9.40;100.00;99687.38;6185470;23;20005;-75
2024/02/13 12:58:31;;;;;;;0.00;0.00;;;;;;;9.45;100.00;99687.41;6186540;23;20008;-73
2024/02/13 13:01:09;;;;;;;0.00;0.00;;;;;;;9.57;100.00;99666.06;6186512;23;20095;-72
2024/02/13 13:03:58;;;;;;;0.00;0.00;;;;;;;9.73;100.00;99682.41;6188524;23;20000;-73
2024/02/13 13:06:31;;;;;;;0.00;0.00;;;;;;;9.42;100.00;99663.41;6171723;23;20013;-75
2024/02/13 13:09:02;;;;;;;0.00;0.00;;;;;;;9.39;100.00;99680.31;6139869;23;20005;-73
2024/02/13 13:11:28;;;;;;;0.00;0.00;;;;;;;9.47;100.00;99676.19;6216785;23;20020;-74
2024/02/13 13:13:55;;;;;;;0.00;0.00;;;;;;;9.53;100.00;99664.16;6160186;23;20386;-75
2024/02/13 13:16:48;;;;;;;0.00;0.00;;;;;;;9.41;100.00;99634.47;6215730;23;20009;-74
2024/02/13 13:19:47;;;;;;;;;;;;;;;;;;;;;
2024/02/13 13:22:44;;;;;;;0.00;0.00;;;;;;;9.20;100.00;99611.84;6207462;23;20065;-73
2024/02/13 13:25:25;;;;;;;0.00;0.00;;;;;;;9.32;100.00;99598.75;6191098;23;20403;-74
2024/02/13 13:28:05;;;;;;;0.00;0.00;;;;;;;9.58;100.00;99618.56;6190263;23;20062;-75
2024/02/13 13:30:45;;;;;;;0.00;0.00;;;;;;;9.57;100.00;99627.84;6185458;23;20008;-73
2024/02/13 13:33:13;;;;;;;0.00;0.00;;;;;;;9.52;100.00;99635.22;6186537;23;20015;-74
2024/02/13 13:35:40;;;;;;;0.00;0.00;;;;;;;9.49;100.00;99630.34;6163249;23;20023;-75
2024/02/13 13:38:08;;;;;;;0.00;0.00;;;;;;;9.67;100.00;99637.09;6189829;23;20013;-74
2024/02/13 13:40:43;;;;;;;0.00;0.00;;;;;;;9.48;100.00;99612.34;6213646;23;20013;-74
2024/02/13 13:43:14;;;;;;;0.00;0.00;;;;;;;9.32;100.00;99606.13;6166157;23;20428;-74
2024/02/13 13:45:57;;;;;;;0.00;0.00;;;;;;;9.40;100.00;99630.09;6209595;23;20454;-75
2024/02/13 13:48:24;;;;;;;0.00;0.00;;;;;;;9.44;100.00;99626.53;6215102;23;20096;-73
2024/02/13 13:50:50;;;;;;;0.00;0.00;;;;;;;9.33;100.00;99616.75;6186537;23;20007;-74
2024/02/13 13:53:16;;;;;;;0.00;0.00;;;;;;;9.19;100.00;99605.59;6162196;23;20454;-74
2024/02/13 13:55:43;;;;;;;0.00;0.00;;;;;;;9.24;100.00;99607.50;6213482;23;20000;-74
2024/02/13 13:58:16;;;;;;;0.00;0.00;;;;;;;9.01;100.00;99584.34;6214043;23;20016;-73
2024/02/13 14:00:55;;;;;;;;;;;;;;;;;;;;;
2024/02/13 14:03:28;;;;;;;0.00;0.00;;;;;;;9.12;100.00;99593.34;6190494;23;20088;-74
2024/02/13 14:05:57;;;;;;;0.00;0.00;;;;;;;9.06;100.00;99578.91;6164888;23;20331;-75